createdAt,value
2022-12-27T00:00:22.620Z,68.87
2022-12-27T00:01:27.000Z,68.51
2022-12-27T00:02:28.788Z,69.04
2022-12-27T00:03:30.786Z,69.02
2022-12-27T00:04:32.470Z,69.06
2022-12-27T00:05:34.240Z,68.41
2022-12-27T00:06:36.047Z,68.31
2022-12-27T00:07:37.829Z,68.78
2022-12-27T00:08:39.612Z,69.15
2022-12-27T00:09:41.434Z,69.17
2022-12-27T00:10:43.213Z,69.51
2022-12-27T00:11:44.959Z,70.40
2022-12-27T00:12:46.661Z,70.62
2022-12-27T00:13:48.875Z,69.93
2022-12-27T00:14:50.612Z,71.00
2022-12-27T00:15:52.309Z,70.09
2022-12-27T00:16:54.040Z,70.83
2022-12-27T00:17:55.918Z,69.90
2022-12-27T00:18:58.582Z,70.85
2022-12-27T00:20:02.952Z,70.47
2022-12-27T00:21:14.198Z,70.30
2022-12-27T00:22:15.962Z,70.55
2022-12-27T00:23:17.682Z,70.61
2022-12-27T00:24:19.395Z,70.89
2022-12-27T00:25:21.082Z,71.04
2022-12-27T00:26:28.509Z,70.40
2022-12-27T00:27:30.221Z,70.67
2022-12-27T00:28:33.628Z,70.50
2022-12-27T00:29:35.358Z,71.39
2022-12-27T00:30:37.232Z,71.02
2022-12-27T00:31:39.071Z,70.39
2022-12-27T00:32:40.787Z,70.50
2022-12-27T00:33:44.773Z,70.78
2022-12-27T00:34:46.481Z,71.01
2022-12-27T00:35:48.196Z,70.80
2022-12-27T00:36:49.935Z,70.73
2022-12-27T00:37:51.648Z,71.39
2022-12-27T00:38:54.630Z,71.30
2022-12-27T00:39:56.368Z,70.79
2022-12-27T00:40:58.387Z,71.04
2022-12-27T00:42:00.130Z,70.79
2022-12-27T00:43:01.847Z,70.71
2022-12-27T00:44:03.707Z,70.76
2022-12-27T00:45:05.982Z,71.03
2022-12-27T00:46:08.088Z,70.69
2022-12-27T00:47:10.867Z,70.96
2022-12-27T00:48:12.941Z,71.09
2022-12-27T00:49:14.649Z,71.18
2022-12-27T00:50:16.495Z,72.33
2022-12-27T00:51:21.890Z,72.76
2022-12-27T00:52:23.580Z,72.94
2022-12-27T00:53:26.080Z,73.66
2022-12-27T00:54:27.838Z,73.91
2022-12-27T00:55:29.573Z,73.93
2022-12-27T00:56:31.519Z,73.33
2022-12-27T00:57:33.202Z,73.55
2022-12-27T00:58:40.507Z,73.25
2022-12-27T00:59:42.603Z,73.55
2022-12-27T01:00:44.528Z,72.60
2022-12-27T01:01:46.362Z,72.57
2022-12-27T01:02:48.129Z,71.89
2022-12-27T01:03:49.956Z,72.64
2022-12-27T01:04:53.336Z,72.25
2022-12-27T01:05:55.059Z,72.81
2022-12-27T01:06:56.760Z,72.58
2022-12-27T01:07:58.536Z,72.48
2022-12-27T01:09:01.981Z,72.86
2022-12-27T01:10:04.124Z,73.08
2022-12-27T01:11:07.248Z,72.15
2022-12-27T01:12:08.949Z,72.86
2022-12-27T01:13:11.119Z,71.84
2022-12-27T01:14:12.907Z,71.48
2022-12-27T01:15:14.612Z,70.41
2022-12-27T01:16:19.551Z,70.31
2022-12-27T01:17:21.294Z,70.63
2022-12-27T01:18:23.053Z,69.92
2022-12-27T01:19:24.880Z,70.08
2022-12-27T01:20:27.866Z,69.50
2022-12-27T01:21:31.070Z,69.86
2022-12-27T01:22:32.820Z,69.97
2022-12-27T01:23:35.054Z,69.55
2022-12-27T01:24:36.823Z,69.67
2022-12-27T01:25:38.558Z,69.51
2022-12-27T01:26:40.333Z,69.73
2022-12-27T01:27:42.081Z,70.04
2022-12-27T01:28:44.127Z,70.28
2022-12-27T01:29:45.994Z,70.74
2022-12-27T01:30:47.689Z,70.80
2022-12-27T01:31:50.278Z,70.69
2022-12-27T01:32:52.082Z,71.32
2022-12-27T01:33:55.999Z,72.65
2022-12-27T01:34:57.706Z,73.27
2022-12-27T01:36:18.487Z,73.25
2022-12-27T01:37:20.216Z,73.68
2022-12-27T01:38:21.946Z,74.26
2022-12-27T01:39:23.725Z,73.88
2022-12-27T01:40:26.127Z,74.61
2022-12-27T01:41:50.824Z,74.60
2022-12-27T01:42:52.579Z,74.80
2022-12-27T01:43:54.411Z,74.67
2022-12-27T01:44:57.900Z,74.15
2022-12-27T01:45:59.671Z,74.09
2022-12-27T01:47:03.244Z,74.31
2022-12-27T01:48:17.991Z,75.08
2022-12-27T01:49:19.814Z,73.82
2022-12-27T01:50:45.152Z,73.84
2022-12-27T01:51:46.953Z,74.38
2022-12-27T01:53:00.743Z,74.71
2022-12-27T01:54:02.461Z,75.06
2022-12-27T01:55:29.492Z,75.01
2022-12-27T01:56:31.759Z,74.39
2022-12-27T01:57:33.497Z,73.88
2022-12-27T01:58:53.007Z,73.98
2022-12-27T01:59:54.997Z,73.34
2022-12-27T02:00:57.472Z,72.92
2022-12-27T02:01:59.522Z,72.97
2022-12-27T02:03:04.544Z,73.47
2022-12-27T02:04:10.748Z,73.46
2022-12-27T02:05:17.570Z,74.20
2022-12-27T02:06:22.046Z,74.48
2022-12-27T02:07:30.879Z,74.42
2022-12-27T02:08:52.460Z,74.96
2022-12-27T02:09:56.489Z,75.29
2022-12-27T02:10:58.925Z,75.32
2022-12-27T02:12:02.938Z,74.32
2022-12-27T02:13:06.605Z,73.76
2022-12-27T02:14:10.125Z,73.29
2022-12-27T02:15:11.920Z,73.77
2022-12-27T02:16:17.153Z,73.53
2022-12-27T02:17:30.770Z,72.54
2022-12-27T02:18:32.511Z,72.54
2022-12-27T02:19:36.958Z,72.59
2022-12-27T02:21:06.385Z,72.66
2022-12-27T02:22:57.971Z,72.94
2022-12-27T02:24:26.942Z,73.11
2022-12-27T02:25:31.463Z,72.99
2022-12-27T02:26:41.802Z,73.88
2022-12-27T02:28:48.366Z,74.14
2022-12-27T02:30:04.439Z,72.75
2022-12-27T02:31:16.850Z,73.12
2022-12-27T02:32:44.372Z,72.79
2022-12-27T02:33:48.639Z,72.97
2022-12-27T02:35:08.483Z,72.47
2022-12-27T02:36:16.081Z,72.95
2022-12-27T02:37:21.511Z,72.66
2022-12-27T02:38:29.428Z,72.86
2022-12-27T02:39:36.263Z,72.55
2022-12-27T02:41:00.551Z,73.00
2022-12-27T02:42:22.052Z,73.10
2022-12-27T02:43:42.740Z,73.54
2022-12-27T02:45:03.879Z,74.21
2022-12-27T02:46:46.126Z,75.57
2022-12-27T02:48:07.727Z,74.92
2022-12-27T02:49:46.090Z,73.78
2022-12-27T02:51:09.143Z,73.21
2022-12-27T02:52:53.632Z,73.40
2022-12-27T02:54:22.901Z,73.91
2022-12-27T02:55:30.471Z,73.78
2022-12-27T02:57:21.985Z,74.48
2022-12-27T02:58:36.851Z,73.91
2022-12-27T03:00:22.827Z,74.36
2022-12-27T03:01:52.747Z,74.55
2022-12-27T03:03:25.576Z,74.86
2022-12-27T03:04:30.075Z,74.60
2022-12-27T03:06:13.591Z,74.63
2022-12-27T03:07:22.858Z,74.04
2022-12-27T03:08:34.416Z,73.31
2022-12-27T03:10:53.579Z,73.63
2022-12-27T03:12:14.230Z,72.92
2022-12-27T03:13:57.903Z,73.15
2022-12-27T03:15:51.907Z,73.20
2022-12-27T03:17:02.023Z,72.83
2022-12-27T03:18:11.085Z,73.10
2022-12-27T03:19:42.877Z,72.40
2022-12-27T03:21:05.512Z,71.90
2022-12-27T03:22:29.117Z,71.55
2022-12-27T03:23:49.670Z,71.09
2022-12-27T03:25:12.063Z,71.48
2022-12-27T03:26:17.030Z,70.97
2022-12-27T03:27:31.658Z,71.44
2022-12-27T03:28:54.174Z,71.90
2022-12-27T03:30:16.749Z,72.11
2022-12-27T03:31:48.062Z,72.27
2022-12-27T03:33:13.566Z,72.08
2022-12-27T03:34:32.248Z,71.80
2022-12-27T03:35:41.145Z,72.39
2022-12-27T03:37:01.661Z,72.52
2022-12-27T03:38:05.683Z,72.61
2022-12-27T03:39:13.245Z,73.08
2022-12-27T03:40:20.990Z,73.04
2022-12-27T03:41:54.901Z,73.54
2022-12-27T03:43:11.844Z,74.27
2022-12-27T03:44:26.044Z,74.63
2022-12-27T03:45:53.711Z,74.21
2022-12-27T03:47:11.186Z,74.70
2022-12-27T03:48:20.465Z,74.76
2022-12-27T03:49:44.071Z,74.73
2022-12-27T03:50:54.724Z,74.39
2022-12-27T03:52:02.433Z,74.02
2022-12-27T03:53:14.513Z,75.07
2022-12-27T03:54:26.601Z,75.73
2022-12-27T03:55:33.278Z,75.26
2022-12-27T03:56:36.645Z,74.92
2022-12-27T03:57:39.031Z,75.02
2022-12-27T03:58:40.798Z,75.30
2022-12-27T03:59:42.616Z,74.74
2022-12-27T04:00:44.364Z,75.06
2022-12-27T04:01:46.153Z,75.39
2022-12-27T04:02:48.113Z,74.93
2022-12-27T04:03:49.929Z,74.97
2022-12-27T04:04:51.755Z,74.55
2022-12-27T04:05:53.459Z,75.41
2022-12-27T04:06:55.379Z,75.09
2022-12-27T04:08:15.626Z,74.51
2022-12-27T04:09:36.099Z,75.09
2022-12-27T04:10:56.595Z,75.06
2022-12-27T04:12:17.107Z,75.22
2022-12-27T04:13:37.512Z,74.89
2022-12-27T04:14:58.002Z,75.56
2022-12-27T04:16:18.517Z,75.20
2022-12-27T04:17:39.107Z,75.54
2022-12-27T04:18:59.673Z,75.93
2022-12-27T04:20:20.135Z,76.07
2022-12-27T04:21:40.661Z,75.79
2022-12-27T04:23:01.155Z,76.21
2022-12-27T04:24:21.817Z,76.58
2022-12-27T04:25:42.407Z,76.72
2022-12-27T04:27:03.089Z,76.49
2022-12-27T04:28:23.593Z,76.59
2022-12-27T04:29:44.040Z,77.00
2022-12-27T04:31:04.454Z,76.03
2022-12-27T04:32:24.975Z,76.20
2022-12-27T04:33:45.466Z,75.76
2022-12-27T04:34:47.197Z,76.35
2022-12-27T04:35:48.879Z,75.77
2022-12-27T04:36:50.645Z,75.67
2022-12-27T04:37:52.426Z,76.09
2022-12-27T04:38:54.172Z,75.85
2022-12-27T04:40:14.633Z,75.79
2022-12-27T04:41:34.626Z,75.34
2022-12-27T04:42:55.126Z,75.17
2022-12-27T04:44:15.631Z,75.02
2022-12-27T04:45:35.740Z,75.26
2022-12-27T04:46:55.783Z,75.93
2022-12-27T04:48:15.941Z,75.99
2022-12-27T04:49:45.178Z,75.82
2022-12-27T04:51:05.570Z,75.77
2022-12-27T04:52:37.819Z,74.61
2022-12-27T04:53:58.430Z,74.20
2022-12-27T04:55:11.996Z,74.26
2022-12-27T04:56:13.725Z,74.01
2022-12-27T04:57:15.450Z,73.93
2022-12-27T04:58:17.157Z,73.70
2022-12-27T04:59:37.405Z,74.23
2022-12-27T05:00:57.901Z,73.19
2022-12-27T05:02:05.786Z,72.63
2022-12-27T05:03:12.458Z,73.55
2022-12-27T05:04:14.429Z,73.61
2022-12-27T05:05:16.289Z,73.48
2022-12-27T05:06:18.837Z,73.29
2022-12-27T05:07:39.157Z,72.88
2022-12-27T05:09:00.118Z,71.06
2022-12-27T05:10:22.608Z,71.15
2022-12-27T05:11:43.028Z,70.06
2022-12-27T05:13:03.553Z,69.91
2022-12-27T05:14:12.218Z,69.32
2022-12-27T05:15:13.883Z,69.10
2022-12-27T05:16:15.726Z,69.92
2022-12-27T05:17:17.431Z,69.01
2022-12-27T05:18:19.143Z,68.74
2022-12-27T05:19:20.882Z,69.36
2022-12-27T05:20:22.592Z,69.37
2022-12-27T05:21:24.935Z,69.36
2022-12-27T05:22:45.596Z,70.25
2022-12-27T05:24:06.150Z,71.88
2022-12-27T05:25:28.199Z,73.22
2022-12-27T05:26:31.081Z,73.50
2022-12-27T05:27:32.802Z,74.63
2022-12-27T05:28:34.502Z,74.69
2022-12-27T05:29:36.242Z,74.72
2022-12-27T05:30:40.026Z,75.46
2022-12-27T05:31:41.832Z,75.59
2022-12-27T05:32:43.534Z,75.66
2022-12-27T05:33:45.262Z,76.29
2022-12-27T05:34:46.988Z,76.80
2022-12-27T05:35:48.685Z,76.51
2022-12-27T05:36:50.379Z,76.66
2022-12-27T05:37:55.157Z,76.23
2022-12-27T05:38:58.577Z,76.20
2022-12-27T05:40:00.274Z,76.46
2022-12-27T05:41:02.814Z,76.69
2022-12-27T05:42:04.666Z,76.36
2022-12-27T05:43:06.401Z,75.67
2022-12-27T05:44:08.116Z,75.87
2022-12-27T05:45:09.985Z,76.75
2022-12-27T05:46:17.321Z,77.01
2022-12-27T05:47:19.068Z,76.70
2022-12-27T05:48:21.835Z,76.06
2022-12-27T05:49:23.544Z,75.41
2022-12-27T05:50:25.289Z,75.76
2022-12-27T05:51:27.003Z,75.10
2022-12-27T05:52:30.454Z,75.39
2022-12-27T05:53:32.190Z,75.12
2022-12-27T05:54:33.920Z,74.61
2022-12-27T05:55:35.648Z,75.67
2022-12-27T05:56:37.551Z,75.41
2022-12-27T05:57:39.336Z,75.60
2022-12-27T05:58:41.213Z,75.61
2022-12-27T05:59:42.983Z,74.90
2022-12-27T06:00:44.679Z,75.63
2022-12-27T06:01:46.612Z,75.63
2022-12-27T06:02:48.527Z,75.15
2022-12-27T06:03:50.265Z,75.27
2022-12-27T06:04:52.023Z,76.43
2022-12-27T06:06:01.289Z,77.00
2022-12-27T06:07:03.137Z,77.04
2022-12-27T06:08:05.058Z,77.26
2022-12-27T06:09:06.754Z,76.96
2022-12-27T06:10:09.387Z,76.30
2022-12-27T06:11:13.762Z,75.86
2022-12-27T06:12:15.461Z,76.30
2022-12-27T06:13:17.179Z,77.06
2022-12-27T06:14:18.925Z,77.23
2022-12-27T06:15:20.675Z,76.41
2022-12-27T06:16:23.153Z,76.16
2022-12-27T06:17:24.951Z,75.82
2022-12-27T06:18:26.855Z,75.25
2022-12-27T06:19:28.589Z,75.30
2022-12-27T06:20:30.502Z,74.94
2022-12-27T06:21:32.249Z,75.95
2022-12-27T06:22:34.026Z,77.39
2022-12-27T06:23:37.902Z,76.54
2022-12-27T06:24:39.652Z,75.60
2022-12-27T06:25:41.391Z,76.35
2022-12-27T06:26:43.115Z,75.56
2022-12-27T06:27:44.827Z,76.19
2022-12-27T06:28:47.239Z,76.20
2022-12-27T06:29:48.956Z,76.37
2022-12-27T06:30:50.951Z,75.77
2022-12-27T06:31:52.812Z,75.26
2022-12-27T06:32:54.584Z,74.79
2022-12-27T06:33:57.321Z,74.63
2022-12-27T06:34:59.026Z,74.60
2022-12-27T06:36:12.918Z,74.08
2022-12-27T06:37:14.712Z,74.16
2022-12-27T06:38:16.499Z,73.83
2022-12-27T06:39:18.977Z,74.04
2022-12-27T06:40:22.135Z,73.85
2022-12-27T06:41:24.045Z,73.23
2022-12-27T06:42:25.775Z,73.33
2022-12-27T06:43:27.476Z,73.29
2022-12-27T06:44:29.312Z,73.59
2022-12-27T06:45:31.127Z,73.02
2022-12-27T06:46:32.918Z,72.41
2022-12-27T06:47:34.609Z,73.05
2022-12-27T06:48:36.828Z,72.37
2022-12-27T06:49:38.557Z,72.27
2022-12-27T06:50:40.241Z,72.31
2022-12-27T06:51:41.939Z,73.19
2022-12-27T06:52:43.634Z,72.45
2022-12-27T06:53:45.396Z,71.80
2022-12-27T06:54:47.244Z,72.13
2022-12-27T06:55:49.019Z,71.84
2022-12-27T06:56:50.788Z,71.88
2022-12-27T06:57:52.653Z,72.30
2022-12-27T06:58:54.714Z,74.20
2022-12-27T06:59:56.484Z,76.36
2022-12-27T07:00:58.313Z,76.90
2022-12-27T07:02:00.208Z,78.81
2022-12-27T07:03:04.239Z,78.89
2022-12-27T07:04:06.016Z,73.77
2022-12-27T07:05:08.223Z,71.55
2022-12-27T07:06:14.239Z,73.66
2022-12-27T07:07:16.242Z,74.38
2022-12-27T07:08:17.964Z,74.73
2022-12-27T07:09:19.708Z,73.90
2022-12-27T07:10:21.661Z,73.00
2022-12-27T07:11:24.456Z,72.73
2022-12-27T07:12:27.346Z,71.86
2022-12-27T07:13:34.967Z,66.98
2022-12-27T07:14:36.809Z,63.12
2022-12-27T07:15:39.009Z,62.06
2022-12-27T07:16:40.826Z,62.67
2022-12-27T07:17:43.163Z,62.84
2022-12-27T07:18:45.379Z,60.79
2022-12-27T07:19:48.338Z,60.52
2022-12-27T07:20:50.049Z,62.31
2022-12-27T07:21:51.802Z,64.43
2022-12-27T07:22:53.593Z,64.37
2022-12-27T07:23:55.637Z,62.21
2022-12-27T07:24:57.425Z,63.91
2022-12-27T07:26:03.825Z,64.65
2022-12-27T07:27:05.529Z,62.40
2022-12-27T07:28:07.274Z,59.45
2022-12-27T07:29:09.936Z,55.17
2022-12-27T07:30:11.787Z,54.59
2022-12-27T07:31:19.213Z,55.34
2022-12-27T07:32:20.971Z,56.35
2022-12-27T07:33:22.860Z,56.01
2022-12-27T07:34:26.171Z,54.04
2022-12-27T07:35:27.918Z,53.87
2022-12-27T07:36:33.899Z,52.34
2022-12-27T07:37:35.606Z,49.35
2022-12-27T07:38:37.663Z,48.23
2022-12-27T07:39:39.363Z,48.29
2022-12-27T07:40:41.143Z,48.07
2022-12-27T07:41:42.847Z,45.87
2022-12-27T07:42:44.595Z,44.38
2022-12-27T07:43:46.699Z,43.84
2022-12-27T07:44:48.416Z,44.66
2022-12-27T07:45:50.112Z,43.33
2022-12-27T07:46:52.483Z,41.76
2022-12-27T07:47:54.273Z,41.22
2022-12-27T07:48:57.392Z,40.36
2022-12-27T07:49:59.492Z,40.71
2022-12-27T07:51:01.606Z,40.49
2022-12-27T07:52:03.534Z,40.47
2022-12-27T07:53:05.300Z,38.49
2022-12-27T07:54:07.168Z,38.87
2022-12-27T07:55:09.063Z,37.90
2022-12-27T07:56:13.890Z,37.77
2022-12-27T07:57:15.576Z,37.16
2022-12-27T07:58:18.455Z,36.74
2022-12-27T07:59:20.248Z,35.94
2022-12-27T08:00:22.036Z,35.67
2022-12-27T08:01:26.148Z,35.53
2022-12-27T08:02:27.936Z,35.85
2022-12-27T08:03:29.706Z,34.21
2022-12-27T08:04:34.994Z,35.17
2022-12-27T08:05:36.744Z,35.21
2022-12-27T08:06:38.458Z,35.58
2022-12-27T08:07:41.491Z,34.66
2022-12-27T08:08:44.812Z,33.94
2022-12-27T08:09:48.337Z,34.08
2022-12-27T08:10:50.202Z,34.49
2022-12-27T08:11:52.107Z,33.61
2022-12-27T08:12:53.857Z,33.60
2022-12-27T08:13:55.637Z,34.03
2022-12-27T08:14:57.759Z,34.29
2022-12-27T08:15:59.563Z,33.79
2022-12-27T08:17:20.479Z,33.81
2022-12-27T08:18:22.286Z,32.41
2022-12-27T08:19:24.011Z,32.59
2022-12-27T08:20:25.800Z,32.55
2022-12-27T08:21:27.517Z,31.99
2022-12-27T08:22:29.253Z,32.41
2022-12-27T08:23:30.950Z,31.80
2022-12-27T08:24:32.938Z,31.91
2022-12-27T08:25:34.715Z,31.73
2022-12-27T08:26:36.460Z,32.08
2022-12-27T08:27:38.192Z,31.26
2022-12-27T08:28:40.306Z,30.36
2022-12-27T08:29:45.052Z,29.99
2022-12-27T08:30:47.360Z,30.79
2022-12-27T08:31:49.396Z,30.07
2022-12-27T08:32:51.127Z,29.43
2022-12-27T08:33:58.222Z,29.03
2022-12-27T08:35:18.259Z,29.08
2022-12-27T08:36:53.546Z,28.39
2022-12-27T08:37:43.777Z,28.74
2022-12-27T08:38:45.546Z,28.75
2022-12-27T08:39:47.268Z,29.18
2022-12-27T08:40:49.041Z,29.02
2022-12-27T08:41:52.818Z,29.56
2022-12-27T08:42:54.612Z,30.41
2022-12-27T08:43:56.366Z,29.29
2022-12-27T08:44:58.589Z,28.78
2022-12-27T08:46:02.951Z,28.63
2022-12-27T08:47:05.844Z,29.10
2022-12-27T08:48:08.011Z,29.72
2022-12-27T08:49:09.804Z,29.44
2022-12-27T08:50:11.522Z,29.68
2022-12-27T08:51:18.484Z,29.92
2022-12-27T08:52:25.776Z,30.40
2022-12-27T08:53:27.508Z,29.47
2022-12-27T08:54:29.249Z,29.40
2022-12-27T08:55:32.033Z,30.03
2022-12-27T08:56:33.773Z,29.00
2022-12-27T08:57:35.481Z,28.86
2022-12-27T08:58:37.208Z,29.58
2022-12-27T08:59:38.890Z,30.42
2022-12-27T09:00:40.729Z,29.78
2022-12-27T09:01:42.578Z,29.70
2022-12-27T09:02:44.490Z,28.21
2022-12-27T09:03:46.351Z,29.47
2022-12-27T09:04:48.635Z,28.61
2022-12-27T09:05:50.378Z,28.15
2022-12-27T09:06:52.437Z,27.99
2022-12-27T09:07:54.520Z,27.71
2022-12-27T09:08:57.219Z,27.65
2022-12-27T09:09:58.923Z,28.12
2022-12-27T09:11:09.300Z,27.82
2022-12-27T09:12:11.054Z,27.35
2022-12-27T09:13:12.791Z,28.09
2022-12-27T09:14:14.490Z,28.22
2022-12-27T09:15:16.409Z,28.04
2022-12-27T09:16:22.080Z,27.85
2022-12-27T09:17:23.842Z,27.20
2022-12-27T09:18:25.562Z,27.81
2022-12-27T09:19:27.792Z,27.68
2022-12-27T09:20:29.509Z,26.57
2022-12-27T09:21:34.116Z,26.07
2022-12-27T09:22:35.992Z,26.26
2022-12-27T09:23:38.859Z,26.44
2022-12-27T09:24:40.574Z,26.90
2022-12-27T09:25:42.474Z,27.08
2022-12-27T09:26:44.195Z,26.74
2022-12-27T09:27:45.958Z,26.84
2022-12-27T09:28:48.254Z,27.07
2022-12-27T09:29:49.986Z,26.51
2022-12-27T09:30:51.761Z,27.51
2022-12-27T09:31:53.493Z,26.37
2022-12-27T09:32:55.248Z,25.87
2022-12-27T09:33:57.399Z,25.81
2022-12-27T09:34:59.182Z,26.75
2022-12-27T09:36:08.379Z,25.83
2022-12-27T09:37:10.216Z,25.66
2022-12-27T09:38:12.018Z,26.71
2022-12-27T09:39:14.031Z,26.25
2022-12-27T09:40:19.915Z,26.82
2022-12-27T09:43:23.823Z,26.53
2022-12-27T09:44:56.872Z,26.32
2022-12-27T09:46:00.035Z,26.42
2022-12-27T09:47:09.941Z,26.45
2022-12-27T09:48:17.359Z,27.39
2022-12-27T09:49:33.633Z,25.65
2022-12-27T09:50:50.281Z,25.36
2022-12-27T09:52:07.162Z,25.10
2022-12-27T09:53:17.855Z,24.68
2022-12-27T09:54:29.098Z,24.84
2022-12-27T09:55:49.467Z,24.12
2022-12-27T09:57:19.039Z,24.46
2022-12-27T09:58:23.298Z,24.63
2022-12-27T09:59:24.927Z,24.09
2022-12-27T10:00:34.227Z,25.06
2022-12-27T10:01:40.611Z,25.06
2022-12-27T10:02:44.661Z,24.30
2022-12-27T10:03:46.619Z,24.38
2022-12-27T10:05:20.206Z,24.38
2022-12-27T10:06:23.685Z,24.63
2022-12-27T10:07:49.721Z,24.69
2022-12-27T10:09:10.099Z,23.61
2022-12-27T10:10:23.972Z,24.22
2022-12-27T10:11:56.446Z,24.15
2022-12-27T10:13:23.190Z,24.04
2022-12-27T10:14:48.192Z,24.00
2022-12-27T10:16:16.064Z,23.32
2022-12-27T10:17:36.168Z,23.31
2022-12-27T10:18:56.203Z,23.47
2022-12-27T10:20:04.547Z,23.13
2022-12-27T10:21:28.134Z,23.95
2022-12-27T10:22:41.290Z,23.22
2022-12-27T10:23:47.376Z,22.88
2022-12-27T10:24:56.516Z,23.50
2022-12-27T10:26:02.351Z,23.74
2022-12-27T10:27:13.696Z,23.47
2022-12-27T10:28:25.698Z,23.62
2022-12-27T10:29:28.173Z,24.04
2022-12-27T10:30:31.170Z,23.69
2022-12-27T10:31:35.576Z,24.13
2022-12-27T10:32:37.346Z,25.24
2022-12-27T10:33:40.324Z,24.35
2022-12-27T10:34:42.243Z,24.48
2022-12-27T10:35:44.042Z,24.98
2022-12-27T10:36:45.914Z,24.31
2022-12-27T10:37:49.324Z,23.78
2022-12-27T10:38:51.077Z,23.51
2022-12-27T10:39:52.874Z,23.90
2022-12-27T10:41:33.738Z,23.20
2022-12-27T10:42:47.534Z,23.37
2022-12-27T10:43:54.326Z,23.11
2022-12-27T10:45:34.843Z,23.92
2022-12-27T10:46:36.845Z,23.62
2022-12-27T10:47:38.611Z,22.83
2022-12-27T10:49:20.164Z,24.09
2022-12-27T10:50:12.584Z,22.37
2022-12-27T10:51:14.604Z,22.56
2022-12-27T10:52:24.445Z,23.68
2022-12-27T10:53:49.024Z,22.13
2022-12-27T10:54:55.683Z,22.87
2022-12-27T10:56:24.892Z,23.44
2022-12-27T10:57:33.533Z,23.78
2022-12-27T10:58:35.185Z,23.73
2022-12-27T10:59:37.584Z,23.06
2022-12-27T11:00:39.377Z,23.51
2022-12-27T11:01:41.771Z,24.01
2022-12-27T11:02:53.790Z,23.96
2022-12-27T11:04:14.476Z,24.36
2022-12-27T11:05:27.408Z,24.12
2022-12-27T11:06:29.136Z,24.12
2022-12-27T11:07:33.724Z,24.92
2022-12-27T11:08:35.483Z,24.52
2022-12-27T11:09:40.146Z,24.52
2022-12-27T11:10:44.147Z,25.21
2022-12-27T11:11:45.899Z,25.67
2022-12-27T11:13:03.068Z,25.88
2022-12-27T11:14:16.619Z,25.50
2022-12-27T11:15:19.773Z,26.41
2022-12-27T11:16:30.894Z,26.05
2022-12-27T11:17:42.852Z,26.21
2022-12-27T11:18:49.007Z,25.76
2022-12-27T11:19:50.801Z,26.22
2022-12-27T11:20:59.429Z,26.74
2022-12-27T11:22:07.450Z,27.25
2022-12-27T11:23:09.093Z,26.48
2022-12-27T11:24:16.422Z,26.76
2022-12-27T11:25:18.579Z,27.56
2022-12-27T11:26:27.845Z,27.47
2022-12-27T11:27:30.683Z,28.12
2022-12-27T11:28:32.408Z,27.34
2022-12-27T11:29:34.757Z,27.45
2022-12-27T11:30:40.274Z,28.31
2022-12-27T11:31:48.164Z,27.45
2022-12-27T11:32:50.371Z,28.11
2022-12-27T11:33:54.887Z,28.46
2022-12-27T11:34:57.387Z,28.88
2022-12-27T11:36:00.545Z,28.87
2022-12-27T11:37:16.220Z,28.75
2022-12-27T11:38:26.680Z,29.00
2022-12-27T11:39:41.936Z,29.00
2022-12-27T11:40:43.822Z,29.28
2022-12-27T11:41:56.930Z,29.56
2022-12-27T11:43:09.533Z,29.71
2022-12-27T11:44:20.369Z,29.73
2022-12-27T11:45:29.037Z,29.49
2022-12-27T11:47:03.769Z,29.73
2022-12-27T11:48:30.588Z,30.39
2022-12-27T11:50:00.771Z,30.27
2022-12-27T11:51:09.885Z,30.69
2022-12-27T11:52:21.476Z,30.89
2022-12-27T11:53:38.033Z,31.11
2022-12-27T11:54:43.619Z,31.00
2022-12-27T11:56:24.976Z,31.20
2022-12-27T11:57:56.741Z,31.11
2022-12-27T11:59:16.874Z,31.87
2022-12-27T12:00:23.873Z,31.37
2022-12-27T12:01:47.515Z,32.13
2022-12-27T12:02:58.209Z,32.28
2022-12-27T12:04:31.900Z,32.27
2022-12-27T12:05:49.074Z,32.98
2022-12-27T12:07:28.053Z,32.83
2022-12-27T12:09:11.094Z,32.41
2022-12-27T12:10:31.488Z,32.99
2022-12-27T12:11:58.718Z,32.85
2022-12-27T12:13:09.762Z,33.39
2022-12-27T12:14:17.224Z,33.01
2022-12-27T12:15:42.947Z,33.13
2022-12-27T12:17:05.071Z,33.27
2022-12-27T12:18:28.523Z,33.49
2022-12-27T12:19:48.577Z,33.59
2022-12-27T12:21:08.682Z,33.48
2022-12-27T12:22:31.721Z,33.67
2022-12-27T12:24:04.379Z,33.90
2022-12-27T12:25:27.062Z,34.00
2022-12-27T12:27:10.037Z,34.26
2022-12-27T12:28:58.699Z,34.18
2022-12-27T12:30:39.074Z,34.18
2022-12-27T12:31:56.065Z,34.19
2022-12-27T12:33:06.559Z,34.03
2022-12-27T12:34:27.245Z,33.47
2022-12-27T12:35:48.714Z,34.41
2022-12-27T12:37:12.199Z,34.41
2022-12-27T12:38:27.854Z,33.24
2022-12-27T12:39:39.904Z,33.75
2022-12-27T12:41:13.713Z,33.56
2022-12-27T12:42:50.749Z,33.60
2022-12-27T12:44:19.661Z,33.26
2022-12-27T12:45:58.329Z,33.44
2022-12-27T12:47:37.833Z,33.32
2022-12-27T12:49:03.672Z,33.30
2022-12-27T12:50:24.193Z,33.68
2022-12-27T12:51:54.775Z,33.51
2022-12-27T12:53:11.442Z,33.95
2022-12-27T12:54:16.222Z,34.07
2022-12-27T12:55:38.493Z,33.73
2022-12-27T12:57:06.551Z,33.85
2022-12-27T12:58:56.367Z,33.38
2022-12-27T13:00:25.324Z,33.37
2022-12-27T13:01:36.308Z,33.36
2022-12-27T13:02:40.935Z,33.83
2022-12-27T13:04:13.032Z,34.78
2022-12-27T13:05:44.238Z,34.36
2022-12-27T13:07:07.158Z,34.49
2022-12-27T13:08:39.323Z,34.34
2022-12-27T13:10:12.884Z,34.16
2022-12-27T13:11:37.639Z,34.10
2022-12-27T13:13:21.317Z,34.52
2022-12-27T13:14:45.771Z,34.31
2022-12-27T13:16:24.370Z,34.40
2022-12-27T13:17:37.330Z,34.42
2022-12-27T13:18:41.980Z,34.32
2022-12-27T13:20:01.835Z,34.35
2022-12-27T13:21:21.339Z,34.50
2022-12-27T13:22:47.350Z,34.77
2022-12-27T13:23:51.673Z,34.83
2022-12-27T13:25:27.369Z,35.00
2022-12-27T13:26:39.839Z,34.76
2022-12-27T13:28:05.663Z,34.61
2022-12-27T13:29:25.990Z,34.47
2022-12-27T13:30:33.835Z,34.46
2022-12-27T13:31:48.303Z,34.27
2022-12-27T13:33:08.896Z,34.92
2022-12-27T13:34:13.382Z,34.82
2022-12-27T13:35:50.300Z,34.89
2022-12-27T13:37:06.900Z,34.15
2022-12-27T13:38:49.921Z,34.18
2022-12-27T13:39:57.516Z,34.52
2022-12-27T13:41:30.115Z,34.35
2022-12-27T13:42:44.719Z,34.13
2022-12-27T13:43:52.412Z,34.21
2022-12-27T13:45:12.809Z,34.26
2022-12-27T13:46:17.329Z,34.72
2022-12-27T13:47:41.611Z,34.65
2022-12-27T13:49:01.554Z,34.85
2022-12-27T13:50:44.335Z,35.30
2022-12-27T13:51:50.879Z,34.72
2022-12-27T13:53:20.077Z,34.98
2022-12-27T13:54:49.446Z,35.11
2022-12-27T13:56:43.635Z,35.45
2022-12-27T13:57:56.005Z,35.40
2022-12-27T13:59:00.605Z,35.78
2022-12-27T14:00:20.181Z,35.89
2022-12-27T14:01:28.088Z,35.76
2022-12-27T14:02:32.935Z,35.99
2022-12-27T14:04:01.373Z,36.29
2022-12-27T14:05:03.399Z,36.80
2022-12-27T14:06:14.416Z,36.31
2022-12-27T14:07:37.207Z,36.60
2022-12-27T14:09:00.310Z,36.50
2022-12-27T14:10:27.935Z,36.74
2022-12-27T14:11:51.376Z,37.16
2022-12-27T14:13:10.199Z,37.27
2022-12-27T14:14:15.595Z,37.74
2022-12-27T14:15:22.766Z,37.70
2022-12-27T14:16:24.463Z,37.90
2022-12-27T14:17:51.625Z,38.11
2022-12-27T14:19:22.950Z,38.22
2022-12-27T14:20:54.123Z,38.86
2022-12-27T14:22:20.335Z,38.78
2022-12-27T14:23:41.043Z,38.73
2022-12-27T14:25:03.995Z,39.15
2022-12-27T14:26:29.642Z,39.75
2022-12-27T14:28:05.389Z,39.59
2022-12-27T14:29:25.014Z,40.09
2022-12-27T14:30:59.212Z,40.19
2022-12-27T14:32:19.507Z,40.46
2022-12-27T14:33:44.855Z,40.82
2022-12-27T14:35:03.340Z,40.77
2022-12-27T14:36:42.340Z,41.38
2022-12-27T14:37:49.648Z,40.70
2022-12-27T14:39:23.901Z,40.76
2022-12-27T14:40:56.812Z,41.18
2022-12-27T14:42:35.957Z,41.00
2022-12-27T14:44:10.984Z,41.02
2022-12-27T14:45:55.418Z,40.83
2022-12-27T14:47:01.881Z,41.46
2022-12-27T14:48:41.407Z,41.26
2022-12-27T14:50:04.034Z,41.37
2022-12-27T14:52:00.112Z,41.08
2022-12-27T14:53:02.280Z,41.08
2022-12-27T14:54:29.651Z,41.08
2022-12-27T14:55:50.528Z,41.49
2022-12-27T14:56:58.032Z,41.31
2022-12-27T14:58:29.525Z,41.73
2022-12-27T14:59:40.191Z,41.46
2022-12-27T15:01:12.735Z,42.08
2022-12-27T15:02:51.184Z,42.46
2022-12-27T15:04:05.294Z,42.48
2022-12-27T15:05:44.588Z,42.40
2022-12-27T15:07:11.254Z,42.41
2022-12-27T15:08:50.566Z,42.88
2022-12-27T15:10:15.734Z,42.81
2022-12-27T15:11:20.358Z,42.54